Time;durP1;ratioP1;P1;durP2;ratioP2;P2;SDS_P1;SDS_P2;PMS_P1;PMS_P2;Temp;Humidity;BMP_temperature;BMP_pressure;BME280_temperature;BME280_humidity;BME280_pressure;Samples;Min_cycle;Max_cycle;Signal;HPM_P1;HPM_P2
2023/12/31 00:00:31;;;;;;;0.70;0.50;;;9.40;99.90;;;;;;5051242;28;20060;-56
2023/12/31 00:02:56;;;;;;;2.17;0.70;;;9.40;99.90;;;;;;5051420;28;20068;-55
2023/12/31 00:05:22;;;;;;;2.17;0.60;;;9.40;99.90;;;;;;5051418;28;20033;-55
2023/12/31 00:07:48;;;;;;;1.97;0.80;;;9.40;99.90;;;;;;5051309;28;20028;-56
2023/12/31 00:10:13;;;;;;;1.13;0.97;;;9.40;99.90;;;;;;5051074;28;20025;-53
2023/12/31 00:12:39;;;;;;;3.00;0.80;;;9.40;99.90;;;;;;5051300;28;20516;-56
2023/12/31 00:15:05;;;;;;;1.23;0.60;;;9.40;99.90;;;;;;5051284;28;20033;-55
2023/12/31 00:17:30;;;;;;;0.90;0.70;;;9.30;99.90;;;;;;5051227;28;20025;-55
2023/12/31 00:19:56;;;;;;;2.30;0.80;;;9.30;99.90;;;;;;5051098;28;20148;-56
2023/12/31 00:22:22;;;;;;;3.10;0.80;;;9.30;99.90;;;;;;5054058;28;20500;-56
2023/12/31 00:24:51;;;;;;;1.20;0.60;;;9.30;99.90;;;;;;5037473;28;20040;-52
2023/12/31 00:27:17;;;;;;;3.88;0.82;;;9.30;99.90;;;;;;5055041;28;20394;-56
2023/12/31 00:29:44;;;;;;;1.63;0.60;;;9.30;99.90;;;;;;5054615;28;20040;-56
2023/12/31 00:32:10;;;;;;;0.77;0.60;;;9.20;99.90;;;;;;5036984;28;20060;-55
2023/12/31 00:34:36;;;;;;;1.40;0.70;;;9.20;99.90;;;;;;5037191;28;20109;-54
2023/12/31 00:37:03;;;;;;;1.33;0.50;;;9.20;99.90;;;;;;5054789;28;20032;-56
2023/12/31 00:39:29;;;;;;;1.47;0.87;;;9.20;99.90;;;;;;5036841;28;20385;-52
2023/12/31 00:41:55;;;;;;;2.63;0.70;;;9.20;99.90;;;;;;5036831;28;20040;-55
2023/12/31 00:44:20;;;;;;;1.63;0.80;;;9.20;99.90;;;;;;5036697;28;20036;-56
2023/12/31 00:46:46;;;;;;;1.97;0.90;;;9.20;99.90;;;;;;5054706;28;20556;-55
2023/12/31 00:49:12;;;;;;;1.07;0.40;;;9.20;99.90;;;;;;5036360;28;20029;-56
2023/12/31 00:51:37;;;;;;;2.90;0.90;;;9.20;99.90;;;;;;5036596;28;20033;-56
2023/12/31 00:54:03;;;;;;;2.73;1.20;;;9.20;99.90;;;;;;5036664;28;20059;-56
2023/12/31 00:56:28;;;;;;;1.13;0.53;;;9.20;99.90;;;;;;5054383;28;20040;-55
2023/12/31 00:58:54;;;;;;;2.53;0.73;;;9.20;99.90;;;;;;5054221;28;20033;-55
2023/12/31 01:01:20;;;;;;;3.17;0.83;;;9.20;99.90;;;;;;5054492;28;20028;-51
2023/12/31 01:03:45;;;;;;;2.30;1.00;;;9.20;99.90;;;;;;5036402;28;20028;-56
2023/12/31 01:06:11;;;;;;;2.30;0.73;;;9.20;99.90;;;;;;5036493;28;20520;-56
2023/12/31 01:08:36;;;;;;;1.63;0.73;;;9.20;99.90;;;;;;5053969;28;20301;-56
2023/12/31 01:11:02;;;;;;;2.23;0.83;;;9.20;99.90;;;;;;5036200;28;20033;-56
2023/12/31 01:13:28;;;;;;;1.33;0.80;;;9.30;99.90;;;;;;5036258;28;20210;-56
2023/12/31 01:15:54;;;;;;;2.93;0.70;;;9.20;99.90;;;;;;5036298;28;20452;-56
2023/12/31 01:18:20;;;;;;;2.60;0.80;;;9.20;99.90;;;;;;5053946;28;20035;-56
2023/12/31 01:20:46;;;;;;;3.33;0.90;;;9.20;99.90;;;;;;5036064;28;20055;-56
2023/12/31 01:23:11;;;;;;;3.27;1.00;;;9.20;99.90;;;;;;5036121;28;20033;-53
2023/12/31 01:25:37;;;;;;;1.57;1.00;;;9.30;99.90;;;;;;5053918;28;20094;-56
2023/12/31 01:28:04;;;;;;;2.33;1.00;;;9.30;99.90;;;;;;5035960;28;20116;-55
2023/12/31 01:30:29;;;;;;;2.50;1.00;;;9.30;99.90;;;;;;5035717;28;20040;-56
2023/12/31 01:32:56;;;;;;;2.03;1.00;;;9.40;99.90;;;;;;5053056;28;20033;-53
2023/12/31 01:35:21;;;;;;;1.77;0.90;;;9.40;99.90;;;;;;5054045;28;20100;-54
2023/12/31 01:37:47;;;;;;;1.83;1.00;;;9.40;99.90;;;;;;5035810;28;20108;-53
2023/12/31 01:40:13;;;;;;;2.77;1.33;;;9.40;99.90;;;;;;5053501;28;20109;-53
2023/12/31 01:42:39;;;;;;;1.40;0.90;;;9.50;99.90;;;;;;5035399;28;20040;-54
2023/12/31 01:45:05;;;;;;;2.60;0.90;;;9.40;99.90;;;;;;5035604;28;20075;-53
2023/12/31 01:47:35;;;;;;;1.50;0.90;;;9.50;99.90;;;;;;5035791;28;20032;-50
2023/12/31 01:50:03;;;;;;;2.43;0.97;;;9.60;99.90;;;;;;5035258;28;20037;-53
2023/12/31 01:52:30;;;;;;;1.30;0.77;;;9.50;99.90;;;;;;5053326;28;20078;-54
2023/12/31 01:54:57;;;;;;;2.17;1.00;;;9.50;99.90;;;;;;5053279;28;20025;-53
2023/12/31 01:57:25;;;;;;;2.47;0.90;;;9.50;99.90;;;;;;5053331;28;20025;-50
2023/12/31 01:59:53;;;;;;;5.37;1.13;;;9.50;99.90;;;;;;5035161;28;20401;-54
2023/12/31 02:02:21;;;;;;;1.90;0.90;;;9.50;99.90;;;;;;5035236;28;20032;-52
2023/12/31 02:04:47;;;;;;;2.10;1.00;;;9.50;99.90;;;;;;5035222;28;20033;-50
2023/12/31 02:07:12;;;;;;;2.57;1.10;;;9.50;99.90;;;;;;5035294;28;20042;-50
2023/12/31 02:09:38;;;;;;;1.73;1.00;;;9.50;99.90;;;;;;5052581;28;20060;-50
2023/12/31 02:12:05;;;;;;;1.77;0.90;;;9.50;99.90;;;;;;5018543;28;20466;-54
2023/12/31 02:14:31;;;;;;;1.70;0.93;;;9.50;99.90;;;;;;5052911;28;20421;-52
2023/12/31 02:16:57;;;;;;;2.13;0.90;;;9.40;99.90;;;;;;5035220;28;20033;-54
2023/12/31 02:19:23;;;;;;;1.27;0.80;;;9.50;99.90;;;;;;5034714;28;20025;-50
2023/12/31 02:21:49;;;;;;;5.63;1.10;;;9.40;99.90;;;;;;5052823;28;20029;-50
2023/12/31 02:24:18;;;;;;;3.17;1.27;;;9.40;99.90;;;;;;5034879;28;20124;-55
2023/12/31 02:26:44;;;;;;;3.75;0.80;;;9.40;99.90;;;;;;5035023;28;20090;-55
2023/12/31 02:29:09;;;;;;;1.80;1.07;;;9.40;99.90;;;;;;5034670;28;20116;-52
2023/12/31 02:31:35;;;;;;;1.90;0.90;;;9.40;99.90;;;;;;5052614;28;20477;-55
2023/12/31 02:34:01;;;;;;;2.93;1.77;;;9.40;99.90;;;;;;5034616;28;20037;-54
2023/12/31 02:36:27;;;;;;;2.07;0.80;;;9.30;99.90;;;;;;5034591;28;20167;-54
2023/12/31 02:38:53;;;;;;;1.57;1.00;;;9.30;99.90;;;;;;5034303;28;20423;-53
2023/12/31 02:41:18;;;;;;;1.90;0.97;;;9.30;99.90;;;;;;5034440;28;20042;-53
2023/12/31 02:43:45;;;;;;;1.67;1.00;;;9.30;99.90;;;;;;5052107;28;20498;-51
2023/12/31 02:46:11;;;;;;;3.17;0.90;;;9.20;99.90;;;;;;5033842;28;20060;-54
2023/12/31 02:48:36;;;;;;;2.97;1.03;;;9.20;99.90;;;;;;5051889;28;20064;-53
2023/12/31 02:51:02;;;;;;;2.47;1.17;;;9.20;99.90;;;;;;5052239;28;20025;-53
2023/12/31 02:53:28;;;;;;;2.23;0.70;;;9.20;99.90;;;;;;5052289;28;20108;-53
2023/12/31 02:55:53;;;;;;;2.07;1.20;;;9.20;99.90;;;;;;5034347;28;20032;-51
2023/12/31 02:58:19;;;;;;;2.83;1.20;;;9.20;99.90;;;;;;5034185;28;20073;-55
2023/12/31 03:00:44;;;;;;;1.77;0.90;;;9.10;99.90;;;;;;5034138;28;20371;-54
2023/12/31 03:03:10;;;;;;;1.60;1.07;;;9.10;99.90;;;;;;5034218;28;20071;-54
2023/12/31 03:05:36;;;;;;;2.00;0.90;;;9.10;99.90;;;;;;5034207;28;20379;-53
2023/12/31 03:08:02;;;;;;;4.77;1.27;;;9.10;99.90;;;;;;5052078;28;20385;-55
2023/12/31 03:10:27;;;;;;;2.90;1.00;;;9.10;99.90;;;;;;5051768;28;20060;-54
2023/12/31 03:12:53;;;;;;;3.10;1.37;;;9.10;99.90;;;;;;5051851;28;20071;-52
2023/12/31 03:15:20;;;;;;;1.97;1.10;;;9.10;99.90;;;;;;5034209;28;20029;-54
2023/12/31 03:17:45;;;;;;;1.87;1.00;;;9.10;99.90;;;;;;5033911;28;20099;-54
2023/12/31 03:20:11;;;;;;;1.67;1.00;;;9.10;99.90;;;;;;5051614;28;20029;-54
2023/12/31 03:22:37;;;;;;;2.53;0.80;;;9.10;99.90;;;;;;5051735;28;20025;-52
2023/12/31 03:25:04;;;;;;;4.20;1.03;;;9.10;99.90;;;;;;5051916;28;20115;-52
2023/12/31 03:27:29;;;;;;;2.97;1.30;;;9.10;99.90;;;;;;5033960;28;20505;-55
2023/12/31 03:29:55;;;;;;;1.23;0.70;;;9.10;99.90;;;;;;5033855;28;20052;-55
2023/12/31 03:32:20;;;;;;;2.00;1.20;;;9.20;99.90;;;;;;5051548;28;20021;-52
2023/12/31 03:34:46;;;;;;;3.07;1.10;;;9.20;99.90;;;;;;5051641;28;20032;-54
2023/12/31 03:37:12;;;;;;;2.27;1.00;;;9.10;99.90;;;;;;5033791;28;20107;-53
2023/12/31 03:39:37;;;;;;;2.50;1.13;;;9.20;99.90;;;;;;5033449;28;20390;-55
2023/12/31 03:42:03;;;;;;;2.63;0.87;;;9.20;99.90;;;;;;5051505;28;20497;-52
2023/12/31 03:44:29;;;;;;;1.50;1.03;;;9.30;99.90;;;;;;5033662;28;20056;-51
2023/12/31 03:46:54;;;;;;;1.97;0.93;;;9.30;99.90;;;;;;5033638;28;20039;-55
2023/12/31 03:49:20;;;;;;;1.43;0.93;;;9.30;99.90;;;;;;5033402;28;20037;-55
2023/12/31 03:51:45;;;;;;;1.87;1.00;;;9.30;99.90;;;;;;5033470;28;20073;-52
2023/12/31 03:54:11;;;;;;;2.07;1.30;;;9.30;99.90;;;;;;5034012;28;20025;-51
2023/12/31 03:56:37;;;;;;;1.73;1.10;;;9.40;99.90;;;;;;5035507;28;20033;-53
2023/12/31 03:59:02;;;;;;;2.00;0.80;;;9.40;99.90;;;;;;5037434;28;20033;-55
2023/12/31 04:01:28;;;;;;;2.03;1.00;;;9.40;99.90;;;;;;5055432;28;20041;-52
2023/12/31 04:03:54;;;;;;;2.20;1.10;;;9.40;99.90;;;;;;5037469;28;20059;-54
2023/12/31 04:06:19;;;;;;;1.67;0.80;;;9.50;99.90;;;;;;5037555;28;20039;-55
2023/12/31 04:08:46;;;;;;;5.37;1.20;;;9.50;99.90;;;;;;5037102;28;20580;-51
2023/12/31 04:11:13;;;;;;;2.50;1.20;;;9.50;99.90;;;;;;5037384;28;20112;-52
2023/12/31 04:13:41;;;;;;;2.70;1.10;;;9.50;99.90;;;;;;5037281;28;20033;-54
2023/12/31 04:16:10;;;;;;;3.23;0.97;;;9.50;99.90;;;;;;5037368;28;20025;-52
2023/12/31 04:18:36;;;;;;;2.85;1.30;;;9.50;99.90;;;;;;5037182;28;20036;-55
2023/12/31 04:21:02;;;;;;;2.10;1.03;;;9.50;99.90;;;;;;5055082;28;20025;-55
2023/12/31 04:23:28;;;;;;;2.23;0.90;;;9.50;99.90;;;;;;5037227;28;20467;-55
2023/12/31 04:25:53;;;;;;;4.50;2.27;;;9.60;99.90;;;;;;5055048;28;20060;-55
2023/12/31 04:28:19;;;;;;;2.17;1.17;;;9.60;99.90;;;;;;5054860;28;20036;-51
2023/12/31 04:30:45;;;;;;;1.10;0.80;;;9.50;99.90;;;;;;5054789;28;20033;-54
2023/12/31 04:33:11;;;;;;;4.03;1.70;;;9.50;99.90;;;;;;5054831;28;20025;-54
2023/12/31 04:35:37;;;;;;;0.93;0.60;;;9.50;99.90;;;;;;5055261;28;20374;-55
2023/12/31 04:38:03;;;;;;;1.30;0.90;;;9.50;99.90;;;;;;5054985;28;20029;-54
2023/12/31 04:40:28;;;;;;;2.60;1.00;;;9.50;99.90;;;;;;5054565;28;20477;-54
2023/12/31 04:42:55;;;;;;;2.07;1.10;;;9.50;99.90;;;;;;5054514;28;20035;-56
2023/12/31 04:45:21;;;;;;;1.03;0.70;;;9.50;99.90;;;;;;5036892;28;20036;-54
2023/12/31 04:47:46;;;;;;;2.77;1.40;;;9.50;99.90;;;;;;5054533;28;20029;-55
2023/12/31 04:50:12;;;;;;;2.27;1.03;;;9.60;99.90;;;;;;5036776;28;20032;-55
2023/12/31 04:52:37;;;;;;;1.63;0.70;;;9.50;99.90;;;;;;5054488;28;20029;-55
2023/12/31 04:55:03;;;;;;;2.07;1.00;;;9.60;99.90;;;;;;5054546;28;20024;-54
2023/12/31 04:57:29;;;;;;;1.37;0.63;;;9.50;99.90;;;;;;5036628;28;20033;-54
2023/12/31 04:59:55;;;;;;;2.10;1.23;;;9.60;99.90;;;;;;5036319;28;20037;-54
2023/12/31 05:02:22;;;;;;;1.57;0.63;;;9.60;99.90;;;;;;5036577;28;20037;-54
2023/12/31 05:04:47;;;;;;;2.03;0.90;;;9.60;99.90;;;;;;5054411;28;20033;-54
2023/12/31 05:07:13;;;;;;;3.10;1.20;;;9.60;99.90;;;;;;5053673;28;20500;-55
2023/12/31 05:09:39;;;;;;;2.87;1.30;;;9.60;99.90;;;;;;5053672;28;20043;-55
2023/12/31 05:12:05;;;;;;;2.83;1.77;;;9.60;99.90;;;;;;5054114;28;20116;-55
2023/12/31 05:14:31;;;;;;;2.40;1.10;;;9.60;99.90;;;;;;5054215;28;20061;-55
2023/12/31 05:16:56;;;;;;;2.53;0.80;;;9.50;99.90;;;;;;5054043;28;20064;-54
2023/12/31 05:19:22;;;;;;;2.37;1.00;;;9.50;99.90;;;;;;5053820;28;20090;-56
2023/12/31 05:21:47;;;;;;;1.53;0.80;;;9.50;99.90;;;;;;5053987;28;20040;-53
2023/12/31 05:24:13;;;;;;;1.93;0.80;;;9.50;99.90;;;;;;5054022;28;20029;-55
2023/12/31 05:26:38;;;;;;;1.83;1.03;;;9.50;99.90;;;;;;5054291;28;20036;-54
2023/12/31 05:29:04;;;;;;;1.90;0.97;;;9.50;99.90;;;;;;5053502;28;20036;-55
2023/12/31 05:31:30;;;;;;;2.73;0.80;;;9.50;99.90;;;;;;5053693;28;20498;-54
2023/12/31 05:33:55;;;;;;;1.53;0.60;;;9.60;99.90;;;;;;5053834;28;20033;-55
2023/12/31 05:36:21;;;;;;;1.80;0.70;;;9.60;99.90;;;;;;5053733;28;20033;-55
2023/12/31 05:38:47;;;;;;;1.53;0.83;;;9.60;99.90;;;;;;5053600;28;20029;-55
2023/12/31 05:41:12;;;;;;;1.97;0.70;;;9.60;99.90;;;;;;5053602;28;20103;-54
2023/12/31 05:43:38;;;;;;;2.40;0.97;;;9.60;99.90;;;;;;5053550;28;20499;-55
2023/12/31 05:46:03;;;;;;;1.13;0.77;;;9.60;99.90;;;;;;5053516;28;20436;-55
2023/12/31 05:48:29;;;;;;;0.77;0.60;;;9.60;99.90;;;;;;5053403;28;20036;-55
2023/12/31 05:50:55;;;;;;;2.90;1.10;;;9.70;99.90;;;;;;5053311;28;20033;-56
2023/12/31 05:53:20;;;;;;;0.97;0.67;;;9.70;99.90;;;;;;5053525;28;20036;-53
2023/12/31 05:55:46;;;;;;;1.13;0.57;;;9.70;99.90;;;;;;5035473;28;20021;-53
2023/12/31 05:58:12;;;;;;;2.40;0.90;;;9.70;99.90;;;;;;5053278;28;20490;-54
2023/12/31 06:00:38;;;;;;;2.87;0.90;;;9.70;99.90;;;;;;5053606;28;20151;-55
2023/12/31 06:03:03;;;;;;;1.53;0.80;;;9.70;99.90;;;;;;5053151;28;20116;-54
2023/12/31 06:05:29;;;;;;;2.60;1.10;;;9.70;99.90;;;;;;5053233;28;20025;-54
2023/12/31 06:07:55;;;;;;;1.27;0.70;;;9.70;99.90;;;;;;5053048;28;20036;-56
2023/12/31 06:10:21;;;;;;;1.23;0.60;;;9.70;99.90;;;;;;5052877;28;20393;-55
2023/12/31 06:12:46;;;;;;;3.60;0.97;;;9.80;99.90;;;;;;5052950;28;20440;-54
2023/12/31 06:15:12;;;;;;;1.93;0.90;;;9.80;99.90;;;;;;5052866;28;20056;-55
2023/12/31 06:17:38;;;;;;;1.10;0.73;;;9.70;99.90;;;;;;5052860;28;20029;-55
2023/12/31 06:20:06;;;;;;;2.30;0.97;;;9.70;99.90;;;;;;5052468;28;20391;-55
2023/12/31 06:22:32;;;;;;;2.60;0.90;;;9.80;99.90;;;;;;5052773;28;20039;-52
2023/12/31 06:24:58;;;;;;;4.47;0.90;;;9.70;99.90;;;;;;5052798;28;20025;-56
2023/12/31 06:27:24;;;;;;;1.87;1.00;;;9.70;99.90;;;;;;5052771;28;20363;-55
2023/12/31 06:29:50;;;;;;;2.00;0.90;;;9.70;99.90;;;;;;5034429;28;20048;-55
2023/12/31 06:32:20;;;;;;;1.87;1.03;;;9.80;99.90;;;;;;5052595;28;20029;-54
2023/12/31 06:34:46;;;;;;;2.73;0.57;;;9.80;99.90;;;;;;5052648;28;20028;-55
2023/12/31 06:37:12;;;;;;;1.43;0.90;;;9.80;99.90;;;;;;5052611;28;20466;-54
2023/12/31 06:39:41;;;;;;;2.17;0.80;;;9.80;99.90;;;;;;5034483;28;20036;-52
2023/12/31 06:42:07;;;;;;;2.05;1.13;;;9.80;99.90;;;;;;5052483;28;20029;-55
2023/12/31 06:44:32;;;;;;;4.40;1.10;;;9.90;99.90;;;;;;5052315;28;20033;-53
2023/12/31 06:46:58;;;;;;;3.67;1.20;;;9.90;99.90;;;;;;5052487;28;20056;-55
2023/12/31 06:49:23;;;;;;;2.17;1.00;;;9.90;99.90;;;;;;5034185;28;20029;-55
2023/12/31 06:51:49;;;;;;;1.17;0.70;;;10.00;99.90;;;;;;5052259;28;20070;-54
2023/12/31 06:54:14;;;;;;;2.10;0.80;;;10.00;99.90;;;;;;5052314;28;20036;-55
2023/12/31 06:56:40;;;;;;;3.10;1.00;;;10.00;99.90;;;;;;5052415;28;20033;-54
2023/12/31 06:59:06;;;;;;;1.57;0.97;;;10.00;99.90;;;;;;5051822;28;20037;-53
2023/12/31 07:01:31;;;;;;;2.43;1.30;;;10.10;99.90;;;;;;5052154;28;20071;-55
2023/12/31 07:03:57;;;;;;;2.93;1.17;;;10.00;99.90;;;;;;5052162;28;20385;-53
2023/12/31 07:06:22;;;;;;;1.70;1.10;;;10.00;99.90;;;;;;5052163;28;20086;-55
2023/12/31 07:08:48;;;;;;;1.87;0.90;;;10.10;99.90;;;;;;5051755;28;20083;-55
2023/12/31 07:11:15;;;;;;;2.00;1.00;;;10.00;99.90;;;;;;5051962;28;20398;-53
2023/12/31 07:13:40;;;;;;;2.57;1.00;;;10.00;99.90;;;;;;5051905;28;20032;-53
2023/12/31 07:16:06;;;;;;;4.23;1.20;;;10.00;99.90;;;;;;5051991;28;20025;-55
2023/12/31 07:18:33;;;;;;;1.63;0.80;;;10.00;99.90;;;;;;5051646;28;20025;-55
2023/12/31 07:20:58;;;;;;;1.50;1.00;;;10.10;99.90;;;;;;5051904;28;20037;-55
2023/12/31 07:23:24;;;;;;;4.60;1.00;;;10.10;99.90;;;;;;5051819;28;20039;-55
2023/12/31 07:25:50;;;;;;;2.17;1.03;;;10.10;99.90;;;;;;5051893;28;20520;-54
2023/12/31 07:28:15;;;;;;;5.17;1.40;;;10.10;99.90;;;;;;5051686;28;20083;-55
2023/12/31 07:30:41;;;;;;;1.87;1.00;;;10.10;99.90;;;;;;5050966;28;20061;-55
2023/12/31 07:33:06;;;;;;;1.30;0.70;;;10.10;99.90;;;;;;5051695;28;20036;-55
2023/12/31 07:35:36;;;;;;;2.03;0.97;;;10.10;99.90;;;;;;5051826;28;20071;-55
2023/12/31 07:38:03;;;;;;;1.42;1.00;;;10.10;99.90;;;;;;5051858;28;20681;-55
2023/12/31 07:40:29;;;;;;;2.63;1.20;;;10.10;99.90;;;;;;5051492;28;20051;-55
2023/12/31 07:42:55;;;;;;;2.30;1.30;;;10.00;99.90;;;;;;5051411;28;20033;-53
2023/12/31 07:45:21;;;;;;;1.43;0.90;;;10.10;99.90;;;;;;5051658;28;20029;-56
2023/12/31 07:47:47;;;;;;;4.53;1.20;;;10.10;99.90;;;;;;5051546;28;20474;-55
2023/12/31 07:50:13;;;;;;;2.47;1.10;;;10.00;99.90;;;;;;5051328;28;20075;-55
2023/12/31 07:52:39;;;;;;;1.90;1.03;;;10.00;99.90;;;;;;5051479;28;20140;-56
2023/12/31 07:55:08;;;;;;;1.90;1.00;;;10.00;99.90;;;;;;5051514;28;20025;-54
2023/12/31 07:57:34;;;;;;;2.93;1.00;;;10.00;99.90;;;;;;5051374;28;20078;-56
2023/12/31 08:00:00;;;;;;;2.27;1.10;;;10.00;99.90;;;;;;5051238;28;20024;-52
2023/12/31 08:02:26;;;;;;;1.37;0.67;;;10.00;99.90;;;;;;5051445;28;20075;-53
2023/12/31 08:04:51;;;;;;;1.60;0.93;;;10.00;99.90;;;;;;5051439;28;20497;-52
2023/12/31 08:07:18;;;;;;;2.87;1.20;;;10.00;99.90;;;;;;5051409;28;20029;-55
2023/12/31 08:09:43;;;;;;;1.53;0.80;;;10.00;99.90;;;;;;5051128;28;20120;-55
2023/12/31 08:12:09;;;;;;;1.57;0.60;;;10.00;99.90;;;;;;5051176;28;20126;-54
2023/12/31 08:14:34;;;;;;;2.03;0.97;;;10.00;99.90;;;;;;5051619;28;20032;-55
2023/12/31 08:17:00;;;;;;;1.13;0.70;;;10.00;99.90;;;;;;5051316;28;20430;-54
2023/12/31 08:19:26;;;;;;;2.43;0.83;;;10.10;99.90;;;;;;5051107;28;20116;-56
2023/12/31 08:21:51;;;;;;;2.67;1.07;;;10.10;99.90;;;;;;5051219;28;20501;-56
2023/12/31 08:24:20;;;;;;;2.07;0.90;;;10.10;99.90;;;;;;5051232;28;20032;-50
2023/12/31 08:26:46;;;;;;;1.95;0.93;;;10.10;99.90;;;;;;5051242;28;20036;-52
2023/12/31 08:29:11;;;;;;;3.03;0.60;;;10.10;99.90;;;;;;5050888;28;20083;-53
2023/12/31 08:31:37;;;;;;;1.03;0.70;;;10.20;99.90;;;;;;5051194;28;20029;-51
2023/12/31 08:34:03;;;;;;;1.40;0.40;;;10.20;99.90;;;;;;5051169;28;20371;-54
2023/12/31 08:36:29;;;;;;;3.63;1.10;;;10.20;99.90;;;;;;5051274;28;20381;-51
2023/12/31 08:38:55;;;;;;;2.53;1.00;;;10.20;99.90;;;;;;5050822;28;20033;-55
2023/12/31 08:41:21;;;;;;;1.27;0.60;;;10.20;99.90;;;;;;5050995;28;20033;-52
2023/12/31 08:43:48;;;;;;;2.80;1.10;;;10.20;99.90;;;;;;5054489;28;20032;-51
2023/12/31 08:46:14;;;;;;;1.23;0.70;;;10.20;99.90;;;;;;5054775;28;20508;-54
2023/12/31 08:48:39;;;;;;;2.53;1.10;;;10.20;99.90;;;;;;5054535;28;20064;-55
2023/12/31 08:51:05;;;;;;;1.43;0.90;;;10.30;99.90;;;;;;5054469;28;20067;-51
2023/12/31 08:53:31;;;;;;;1.57;0.90;;;10.30;99.90;;;;;;5054596;28;20075;-50
2023/12/31 08:55:57;;;;;;;1.53;1.00;;;10.30;99.90;;;;;;5054492;28;20021;-56
2023/12/31 08:58:23;;;;;;;2.60;1.23;;;10.30;99.90;;;;;;5054343;28;20490;-54
2023/12/31 09:00:48;;;;;;;1.47;1.00;;;10.30;99.90;;;;;;5054410;28;20068;-51
2023/12/31 09:03:14;;;;;;;1.10;0.70;;;10.30;99.90;;;;;;5054303;28;20040;-56
2023/12/31 09:05:39;;;;;;;2.93;0.70;;;10.40;99.90;;;;;;5054324;28;20036;-55
2023/12/31 09:08:05;;;;;;;1.73;0.97;;;10.40;99.90;;;;;;5054271;28;20107;-54
2023/12/31 09:10:31;;;;;;;1.43;0.80;;;10.40;99.90;;;;;;5053814;28;20036;-56
2023/12/31 09:12:57;;;;;;;2.87;1.10;;;10.50;99.90;;;;;;5054190;28;20057;-56
2023/12/31 09:15:22;;;;;;;2.73;1.03;;;10.50;99.90;;;;;;5054211;28;20033;-54
2023/12/31 09:17:48;;;;;;;1.77;0.97;;;10.50;99.90;;;;;;5054086;28;20036;-56
2023/12/31 09:20:14;;;;;;;2.57;0.83;;;10.60;99.90;;;;;;5053875;28;20040;-56
2023/12/31 09:22:39;;;;;;;1.97;0.93;;;10.60;99.90;;;;;;5053939;28;20029;-53
2023/12/31 09:25:08;;;;;;;2.17;1.30;;;10.60;99.90;;;;;;5053882;28;20061;-55
2023/12/31 09:27:37;;;;;;;1.58;0.60;;;10.60;99.90;;;;;;5054018;28;20020;-55
2023/12/31 09:30:02;;;;;;;2.40;1.10;;;10.60;99.90;;;;;;5053701;28;20316;-55
2023/12/31 09:32:28;;;;;;;2.40;0.93;;;10.60;99.90;;;;;;5053824;28;20069;-52
2023/12/31 09:34:54;;;;;;;1.67;0.93;;;10.60;99.90;;;;;;5053847;28;20032;-55
2023/12/31 09:37:19;;;;;;;4.07;1.00;;;10.70;99.90;;;;;;5053721;28;20063;-53
2023/12/31 09:39:48;;;;;;;2.73;1.10;;;10.70;99.90;;;;;;5053466;28;20108;-56
2023/12/31 09:42:20;;;;;;;1.05;0.60;;;10.70;99.90;;;;;;5053625;28;20119;-52
2023/12/31 09:44:49;;;;;;;1.27;0.63;;;10.70;99.90;;;;;;5053710;28;20436;-54
2023/12/31 09:47:14;;;;;;;1.95;1.10;;;10.80;99.90;;;;;;5053558;28;20036;-54
2023/12/31 09:49:41;;;;;;;2.10;0.93;;;10.80;99.90;;;;;;5053261;28;20534;-49
2023/12/31 09:52:07;;;;;;;2.60;1.23;;;10.90;99.90;;;;;;5053408;28;20385;-52
2023/12/31 09:54:38;;;;;;;6.47;1.27;;;10.90;99.90;;;;;;5052842;28;20040;-55
2023/12/31 09:57:05;;;;;;;2.43;1.03;;;10.90;99.90;;;;;;5035639;28;20033;-54
2023/12/31 09:59:31;;;;;;;1.53;0.87;;;10.90;99.90;;;;;;5053069;28;20033;-53
2023/12/31 10:02:04;;;;;;;1.80;1.00;;;10.90;99.90;;;;;;5053207;28;20029;-55
2023/12/31 10:04:30;;;;;;;2.70;1.47;;;10.80;99.90;;;;;;5053207;28;20029;-56
2023/12/31 10:06:57;;;;;;;3.20;1.00;;;10.80;99.90;;;;;;5053227;28;20126;-55
2023/12/31 10:09:27;;;;;;;2.57;1.27;;;10.60;99.90;;;;;;5052691;28;20051;-55
2023/12/31 10:11:56;;;;;;;3.03;1.20;;;10.40;99.90;;;;;;5053105;28;20112;-55
2023/12/31 10:14:23;;;;;;;3.17;1.52;;;10.40;99.90;;;;;;5053045;28;20055;-54
2023/12/31 10:16:49;;;;;;;4.00;1.60;;;10.40;99.90;;;;;;5053009;28;20036;-56
2023/12/31 10:19:15;;;;;;;1.97;1.33;;;10.40;99.90;;;;;;5053089;28;20041;-56
2023/12/31 10:21:42;;;;;;;3.13;1.40;;;10.30;99.90;;;;;;5052922;28;20124;-56
2023/12/31 10:24:11;;;;;;;4.27;1.70;;;10.30;99.90;;;;;;5052819;28;20127;-54
2023/12/31 10:26:36;;;;;;;2.60;1.40;;;10.20;99.90;;;;;;5052881;28;20086;-55
2023/12/31 10:29:04;;;;;;;1.67;0.90;;;10.20;99.90;;;;;;5052871;28;20033;-56
2023/12/31 10:31:31;;;;;;;3.70;1.53;;;10.20;99.90;;;;;;5052597;28;20033;-56
2023/12/31 10:34:11;;;;;;;2.47;1.37;;;10.20;99.90;;;;;;5052750;28;20100;-51
2023/12/31 10:36:37;;;;;;;2.70;1.30;;;10.30;99.90;;;;;;5052731;28;20052;-56
2023/12/31 10:39:03;;;;;;;13.50;5.73;;;10.30;99.90;;;;;;5052305;28;20056;-56
2023/12/31 10:41:34;;;;;;;3.43;1.90;;;10.40;99.90;;;;;;5052495;28;20501;-54
2023/12/31 10:44:04;;;;;;;2.83;1.53;;;10.50;99.90;;;;;;5052404;28;20421;-53
2023/12/31 10:46:32;;;;;;;1.57;1.13;;;10.50;99.90;;;;;;5052861;28;20382;-56
2023/12/31 10:49:03;;;;;;;1.97;1.20;;;10.60;99.90;;;;;;5052055;28;20032;-52
2023/12/31 10:51:28;;;;;;;5.40;1.50;;;10.50;99.90;;;;;;5052604;28;20421;-53
2023/12/31 10:53:58;;;;;;;5.63;2.60;;;10.50;99.90;;;;;;5052184;28;20017;-54
2023/12/31 10:56:24;;;;;;;;;;;10.50;99.90;;;;;;5053294;28;20462;-53
2023/12/31 10:58:54;;;;;;;1.67;1.00;;;10.50;99.90;;;;;;5034162;28;19942;-54
2023/12/31 11:01:21;;;;;;;2.43;1.10;;;10.50;99.90;;;;;;5052275;28;20033;-55
2023/12/31 11:03:48;;;;;;;1.90;1.03;;;10.40;99.90;;;;;;5052142;28;20052;-53
2023/12/31 11:06:16;;;;;;;2.60;0.93;;;10.40;99.90;;;;;;5051310;28;20029;-54
2023/12/31 11:08:45;;;;;;;1.43;0.60;;;10.40;99.90;;;;;;5051845;28;20025;-55
2023/12/31 11:11:11;;;;;;;1.65;0.57;;;10.40;99.90;;;;;;5051888;28;20044;-55
2023/12/31 11:13:40;;;;;;;1.37;0.90;;;10.50;99.90;;;;;;5052018;28;20089;-53
2023/12/31 11:16:18;;;;;;;0.70;0.40;;;10.50;99.90;;;;;;5034138;28;20026;-55
2023/12/31 11:18:58;;;;;;;2.23;0.50;;;10.50;99.90;;;;;;5051853;28;20028;-54
2023/12/31 11:21:36;;;;;;;2.47;0.23;;;10.40;99.90;;;;;;5051768;28;20029;-56
2023/12/31 11:24:18;;;;;;;1.80;0.67;;;10.40;99.90;;;;;;5051829;28;20025;-54
2023/12/31 11:27:02;;;;;;;1.17;0.30;;;10.30;99.90;;;;;;5051940;28;20029;-55
2023/12/31 11:29:27;;;;;;;0.97;0.27;;;10.30;99.90;;;;;;5051543;28;20485;-53
2023/12/31 11:31:53;;;;;;;1.20;0.20;;;10.10;99.90;;;;;;5034008;28;20021;-52
2023/12/31 11:34:18;;;;;;;8.90;3.60;;;10.10;99.90;;;;;;5051691;28;20379;-55
2023/12/31 11:36:44;;;;;;;1.23;0.60;;;10.00;99.90;;;;;;5051704;28;20112;-55
2023/12/31 11:39:16;;;;;;;1.10;0.40;;;9.80;99.90;;;;;;5051469;28;20029;-55
2023/12/31 11:41:50;;;;;;;1.03;0.20;;;9.70;99.90;;;;;;5051733;28;20476;-55
2023/12/31 11:44:36;;;;;;;1.30;0.40;;;9.70;99.90;;;;;;5051714;28;20029;-55
2023/12/31 11:47:01;;;;;;;0.83;0.30;;;9.70;99.90;;;;;;5051660;28;20033;-53
2023/12/31 11:49:27;;;;;;;0.50;0.20;;;9.70;99.90;;;;;;5051189;28;20044;-54
2023/12/31 11:52:01;;;;;;;3.50;0.23;;;9.80;99.90;;;;;;5051420;28;20024;-54
2023/12/31 11:54:40;;;;;;;0.40;0.13;;;9.80;99.90;;;;;;5051507;28;20051;-53
2023/12/31 11:57:08;;;;;;;1.55;0.10;;;9.80;99.90;;;;;;5051502;28;20036;-55
2023/12/31 11:59:38;;;;;;;0.00;0.00;;;9.80;99.90;;;;;;5051328;28;20496;-54
2023/12/31 12:02:06;;;;;;;0.37;0.30;;;9.90;99.90;;;;;;5051407;28;20036;-52
2023/12/31 12:04:32;;;;;;;1.03;0.10;;;9.90;99.90;;;;;;5051586;28;20389;-55
2023/12/31 12:06:58;;;;;;;1.57;0.20;;;9.80;99.90;;;;;;5051360;28;20025;-55
2023/12/31 12:09:29;;;;;;;9.37;2.93;;;9.90;99.90;;;;;;5051018;28;20041;-55
2023/12/31 12:12:05;;;;;;;6.97;2.97;;;9.90;99.90;;;;;;5033544;28;20079;-53
2023/12/31 12:14:31;;;;;;;3.07;0.77;;;9.90;99.90;;;;;;5051515;28;20296;-55
2023/12/31 12:16:58;;;;;;;1.43;0.50;;;9.90;99.90;;;;;;5052140;28;20104;-54
2023/12/31 12:19:25;;;;;;;1.03;0.10;;;9.90;99.90;;;;;;5055050;28;20025;-55
2023/12/31 12:21:51;;;;;;;1.33;0.40;;;9.90;99.90;;;;;;5055067;28;20106;-55
2023/12/31 12:24:17;;;;;;;1.03;0.40;;;9.90;99.90;;;;;;5055152;28;20024;-54
2023/12/31 12:26:48;;;;;;;0.53;0.20;;;9.80;99.90;;;;;;5020718;28;20044;-55
2023/12/31 12:29:17;;;;;;;0.57;0.20;;;9.90;99.90;;;;;;5054804;28;20040;-55
2023/12/31 12:31:52;;;;;;;1.10;0.17;;;10.00;99.90;;;;;;5055075;28;20057;-52
2023/12/31 12:34:18;;;;;;;0.60;0.20;;;10.00;99.90;;;;;;5054965;28;20029;-55
2023/12/31 12:36:46;;;;;;;0.13;0.13;;;10.00;99.90;;;;;;5054850;28;20035;-54
2023/12/31 12:39:21;;;;;;;0.97;0.30;;;10.00;99.90;;;;;;5054648;28;20041;-56
2023/12/31 12:41:52;;;;;;;0.50;0.20;;;10.00;99.90;;;;;;5054875;28;20025;-56
2023/12/31 12:44:19;;;;;;;1.03;0.20;;;10.00;99.90;;;;;;5054776;28;20171;-54
2023/12/31 12:46:46;;;;;;;1.03;0.30;;;9.90;99.90;;;;;;5054763;28;20029;-55
2023/12/31 12:49:13;;;;;;;4.03;0.30;;;10.00;99.90;;;;;;5054208;28;20037;-56